Decoded Metar for KPBH (PHILLIPS/PRICE in WI, USA) (IATA:PBH) | Meteo·Mobile Aviation Weather
aviador You're here:

KPBH Decoded Metar

PHILLIPS/PRICE in WI, USA
Report Time2019-10-19 22:35:00
UTC Time2019-10-19 22:36:23
Flight Rules ifr IFR
Wind190° at 04 kt
W.Decomp.*RWY 19: 4.0 kt HW 0 kt LCW
RWY 24: 2.6 kt HW 3.1 kt LCW
Visibility9999 m
Phenomena:N/A
Clouds:Broken 009 Hf
Ceiling900 ft
Temp10°C (ISA -2)
Dew Point10°C (100% RH)
AAT8.6°C
QNH1005 hPa
Density Alt1,670 ft
Elevation1,473 ft
Report Wrong Elevation
Raw Report
KPBH 192235Z AUTO 19004KT 10SM BKN009 10/10 A2968 RMK AO2
T00980095=

Extra information for KPBH:More info

Metar Taf Metar & Taf Last 4 Metars F.Rules Stats Wind Profile Meteogram Temp Stats Airport Information Weather charts Add Link Nearby VenuesMetar ALERT Operation Metar Decoded Social comments

AIRNAV info for KPBH